TAF KSGR
AMD KSGR 081931Z 0820/0918 13006KT P6SM SCT020 FM082100 13007KT P6SM SCT020 BKN040 FM090100 13008KT P6SM BKN015 FM091000 14005KT 5SM BR OVC006 FM091200 VRB04KT 2SM BR OVC003 FM091600 20009KT 5SM BR BKN015=
METAR KSGR
WC KSGR
WS KSGR
WV KSGR